createdAt,value
2022-11-28T00:00:38.233Z,100.00
2022-11-28T00:01:38.252Z,100.00
2022-11-28T00:02:38.376Z,100.00
2022-11-28T00:03:38.239Z,100.00
2022-11-28T00:04:38.175Z,100.00
2022-11-28T00:05:40.825Z,100.00
2022-11-28T00:06:39.176Z,100.00
2022-11-28T00:07:38.215Z,100.00
2022-11-28T00:08:38.122Z,100.00
2022-11-28T00:09:41.106Z,100.00
2022-11-28T00:10:41.121Z,100.00
2022-11-28T00:11:38.077Z,100.00
2022-11-28T00:12:38.088Z,100.00
2022-11-28T00:13:38.046Z,100.00
2022-11-28T00:14:38.035Z,100.00
2022-11-28T00:15:38.066Z,100.00
2022-11-28T00:16:38.011Z,100.00
2022-11-28T00:17:38.067Z,100.00
2022-11-28T00:18:37.978Z,100.00
2022-11-28T00:19:37.969Z,100.00
2022-11-28T00:20:37.971Z,100.00
2022-11-28T00:21:37.938Z,100.00
2022-11-28T00:22:37.928Z,100.00
2022-11-28T00:23:37.960Z,100.00
2022-11-28T00:24:37.899Z,100.00
2022-11-28T00:25:37.892Z,100.00
2022-11-28T00:26:37.871Z,100.00
2022-11-28T00:27:37.871Z,100.00
2022-11-28T00:28:37.852Z,100.00
2022-11-28T00:29:40.892Z,100.00
2022-11-28T00:30:40.851Z,100.00
2022-11-28T00:31:37.858Z,100.00
2022-11-28T00:32:37.791Z,100.00
2022-11-28T00:33:37.782Z,100.00
2022-11-28T00:34:37.776Z,100.00
2022-11-28T00:35:37.792Z,100.00
2022-11-28T00:36:37.735Z,100.00
2022-11-28T00:37:37.724Z,100.00
2022-11-28T00:38:37.713Z,100.00
2022-11-28T00:39:37.723Z,100.00
2022-11-28T00:40:37.724Z,100.00
2022-11-28T00:41:37.665Z,100.00
2022-11-28T00:42:37.654Z,100.00
2022-11-28T00:43:37.648Z,100.00
2022-11-28T00:44:37.654Z,100.00
2022-11-28T00:45:37.768Z,100.00
2022-11-28T00:46:37.602Z,100.00
2022-11-28T00:47:37.592Z,100.00
2022-11-28T00:48:37.585Z,100.00
2022-11-28T00:49:40.566Z,100.00
2022-11-28T00:50:40.599Z,100.00
2022-11-28T00:51:37.535Z,100.00
2022-11-28T00:52:37.526Z,100.00
2022-11-28T00:53:37.524Z,100.00
2022-11-28T00:54:37.486Z,100.00
2022-11-28T00:55:37.525Z,100.00
2022-11-28T00:56:37.528Z,100.00
2022-11-28T00:57:37.455Z,100.00
2022-11-28T00:58:37.437Z,100.00
2022-11-28T00:59:37.439Z,100.00
2022-11-28T01:00:37.412Z,100.00
2022-11-28T01:01:37.458Z,100.00
2022-11-28T01:02:37.476Z,100.00
2022-11-28T01:03:37.379Z,100.00
2022-11-28T01:04:37.368Z,100.00
2022-11-28T01:05:37.346Z,100.00
2022-11-28T01:06:37.339Z,100.00
2022-11-28T01:07:37.362Z,100.00
2022-11-28T01:08:37.316Z,100.00
2022-11-28T01:09:40.287Z,100.00
2022-11-28T01:10:40.304Z,100.00
2022-11-28T01:11:37.291Z,100.00
2022-11-28T01:12:37.250Z,100.00
2022-11-28T01:13:37.240Z,100.00
2022-11-28T01:14:37.260Z,100.00
2022-11-28T01:15:37.202Z,100.00
2022-11-28T01:16:37.301Z,100.00
2022-11-28T01:17:37.172Z,100.00
2022-11-28T01:18:37.171Z,100.00
2022-11-28T01:19:37.163Z,100.00
2022-11-28T01:20:37.182Z,100.00
2022-11-28T01:21:37.124Z,100.00
2022-11-28T01:22:37.112Z,100.00
2022-11-28T01:23:37.103Z,100.00
2022-11-28T01:24:37.081Z,100.00
2022-11-28T01:25:37.072Z,100.00
2022-11-28T01:26:37.083Z,100.00
2022-11-28T01:27:37.059Z,100.00
2022-11-28T01:28:37.042Z,100.00
2022-11-28T01:29:40.013Z,100.00
2022-11-28T01:30:40.056Z,100.00
2022-11-28T01:31:37.058Z,100.00
2022-11-28T01:32:37.004Z,100.00
2022-11-28T01:33:36.982Z,100.00
2022-11-28T01:34:36.954Z,100.00
2022-11-28T01:35:36.951Z,100.00
2022-11-28T01:36:36.985Z,100.00
2022-11-28T01:37:36.906Z,100.00
2022-11-28T01:38:36.901Z,100.00
2022-11-28T01:39:36.876Z,100.00
2022-11-28T01:40:36.876Z,100.00
2022-11-28T01:41:36.850Z,100.00
2022-11-28T01:42:36.894Z,100.00
2022-11-28T01:43:36.837Z,100.00
2022-11-28T01:44:36.814Z,100.00
2022-11-28T01:45:36.797Z,100.00
2022-11-28T01:46:36.899Z,100.00
2022-11-28T01:47:36.759Z,100.00
2022-11-28T01:48:36.827Z,100.00
2022-11-28T01:49:39.748Z,100.00
2022-11-28T01:50:39.761Z,100.00
2022-11-28T01:51:36.715Z,100.00
2022-11-28T01:52:36.708Z,100.00
2022-11-28T01:53:36.689Z,100.00
2022-11-28T01:54:36.719Z,100.00
2022-11-28T01:55:36.658Z,100.00
2022-11-28T01:56:36.639Z,100.00
2022-11-28T01:57:36.630Z,100.00
2022-11-28T01:58:36.619Z,100.00
2022-11-28T01:59:36.589Z,100.00
2022-11-28T02:00:36.629Z,100.00
2022-11-28T02:01:36.560Z,100.00
2022-11-28T02:02:36.631Z,100.00
2022-11-28T02:03:36.545Z,100.00
2022-11-28T02:04:36.560Z,100.00
2022-11-28T02:05:36.518Z,100.00
2022-11-28T02:06:36.503Z,100.00
2022-11-28T02:07:36.548Z,100.00
2022-11-28T02:08:36.494Z,100.00
2022-11-28T02:09:39.490Z,100.00
2022-11-28T02:10:39.503Z,100.00
2022-11-28T02:11:36.423Z,100.00
2022-11-28T02:12:36.416Z,100.00
2022-11-28T02:13:36.408Z,100.00
2022-11-28T02:14:36.384Z,100.00
2022-11-28T02:15:36.403Z,100.00
2022-11-28T02:16:36.450Z,100.00
2022-11-28T02:17:36.354Z,100.00
2022-11-28T02:18:36.332Z,100.00
2022-11-28T02:19:36.324Z,100.00
2022-11-28T02:20:36.322Z,100.00
2022-11-28T02:21:36.345Z,100.00
2022-11-28T02:22:36.313Z,100.00
2022-11-28T02:23:36.266Z,100.00
2022-11-28T02:24:36.276Z,100.00
2022-11-28T02:25:36.260Z,100.00
2022-11-28T02:26:36.233Z,100.00
2022-11-28T02:27:36.245Z,100.00
2022-11-28T02:28:36.204Z,100.00
2022-11-28T02:29:39.207Z,100.00
2022-11-28T02:30:39.229Z,100.00
2022-11-28T02:31:36.269Z,100.00
2022-11-28T02:32:36.158Z,100.00
2022-11-28T02:33:36.171Z,100.00
2022-11-28T02:34:36.126Z,100.00
2022-11-28T02:35:36.099Z,100.00
2022-11-28T02:36:36.132Z,100.00
2022-11-28T02:37:36.081Z,100.00
2022-11-28T02:38:36.100Z,100.00
2022-11-28T02:39:36.054Z,100.00
2022-11-28T02:40:36.043Z,100.00
2022-11-28T02:41:36.029Z,100.00
2022-11-28T02:42:36.021Z,100.00
2022-11-28T02:43:36.050Z,100.00
2022-11-28T02:44:35.981Z,100.00
2022-11-28T02:45:35.981Z,100.00
2022-11-28T02:46:36.021Z,100.00
2022-11-28T02:47:35.941Z,100.00
2022-11-28T02:48:35.933Z,100.00
2022-11-28T02:49:38.950Z,100.00
2022-11-28T02:50:38.926Z,100.00
2022-11-28T02:51:35.885Z,100.00
2022-11-28T02:52:35.883Z,100.00
2022-11-28T02:53:35.855Z,100.00
2022-11-28T02:54:35.853Z,100.00
2022-11-28T02:55:35.863Z,100.00
2022-11-28T02:56:35.832Z,100.00
2022-11-28T02:57:35.804Z,100.00
2022-11-28T02:58:35.793Z,100.00
2022-11-28T02:59:35.780Z,100.00
2022-11-28T03:00:35.820Z,100.00
2022-11-28T03:01:35.789Z,100.00
2022-11-28T03:02:42.740Z,100.00
2022-11-28T03:03:35.711Z,100.00
2022-11-28T03:04:35.702Z,100.00
2022-11-28T03:05:35.711Z,100.00
2022-11-28T03:06:35.673Z,100.00
2022-11-28T03:07:35.773Z,100.00
2022-11-28T03:08:35.652Z,100.00
2022-11-28T03:09:38.632Z,100.00
2022-11-28T03:10:38.681Z,100.00
2022-11-28T03:11:35.603Z,100.00
2022-11-28T03:12:35.594Z,100.00
2022-11-28T03:13:35.575Z,100.00
2022-11-28T03:14:35.571Z,100.00
2022-11-28T03:15:35.544Z,100.00
2022-11-28T03:16:35.636Z,100.00
2022-11-28T03:17:35.526Z,100.00
2022-11-28T03:18:35.518Z,100.00
2022-11-28T03:19:35.687Z,100.00
2022-11-28T03:20:35.486Z,100.00
2022-11-28T03:21:35.465Z,100.00
2022-11-28T03:22:35.461Z,100.00
2022-11-28T03:23:35.437Z,100.00
2022-11-28T03:24:35.426Z,100.00
2022-11-28T03:25:35.437Z,100.00
2022-11-28T03:26:35.401Z,100.00
2022-11-28T03:27:35.384Z,100.00
2022-11-28T03:28:38.165Z,100.00
2022-11-28T03:29:39.356Z,100.00
2022-11-28T03:30:38.428Z,100.00
2022-11-28T03:31:35.485Z,100.00
2022-11-28T03:32:35.324Z,100.00
2022-11-28T03:33:35.299Z,100.00
2022-11-28T03:34:35.360Z,100.00
2022-11-28T03:35:35.279Z,100.00
2022-11-28T03:36:35.259Z,100.00
2022-11-28T03:37:35.258Z,100.00
2022-11-28T03:38:35.243Z,100.00
2022-11-28T03:39:35.219Z,100.00
2022-11-28T03:40:35.246Z,100.00
2022-11-28T03:41:35.191Z,100.00
2022-11-28T03:42:35.180Z,100.00
2022-11-28T03:43:35.179Z,100.00
2022-11-28T03:44:35.200Z,100.00
2022-11-28T03:45:35.137Z,100.00
2022-11-28T03:46:35.201Z,100.00
2022-11-28T03:47:35.130Z,100.00
2022-11-28T03:48:35.109Z,100.00
2022-11-28T03:49:38.141Z,100.00
2022-11-28T03:50:38.104Z,100.00
2022-11-28T03:51:35.054Z,100.00
2022-11-28T03:52:35.044Z,100.00
2022-11-28T03:53:35.063Z,100.00
2022-11-28T03:54:35.015Z,100.00
2022-11-28T03:55:35.084Z,100.00
2022-11-28T03:56:34.994Z,100.00
2022-11-28T03:57:34.991Z,100.00
2022-11-28T03:58:34.965Z,100.00
2022-11-28T03:59:34.952Z,100.00
2022-11-28T04:00:34.967Z,100.00
2022-11-28T04:01:35.012Z,100.00
2022-11-28T04:02:34.942Z,100.00
2022-11-28T04:03:34.893Z,100.00
2022-11-28T04:04:34.881Z,100.00
2022-11-28T04:05:34.929Z,100.00
2022-11-28T04:06:34.856Z,100.00
2022-11-28T04:07:34.908Z,100.00
2022-11-28T04:08:34.827Z,100.00
2022-11-28T04:09:37.814Z,100.00
2022-11-28T04:10:37.847Z,100.00
2022-11-28T04:11:34.789Z,100.00
2022-11-28T04:12:34.776Z,100.00
2022-11-28T04:13:34.764Z,100.00
2022-11-28T04:14:34.749Z,100.00
2022-11-28T04:15:34.742Z,100.00
2022-11-28T04:16:34.849Z,100.00
2022-11-28T04:17:34.721Z,100.00
2022-11-28T04:18:34.699Z,100.00
2022-11-28T04:19:34.684Z,100.00
2022-11-28T04:20:34.669Z,100.00
2022-11-28T04:21:34.652Z,100.00
2022-11-28T04:22:34.667Z,100.00
2022-11-28T04:23:34.627Z,100.00
2022-11-28T04:24:34.623Z,100.00
2022-11-28T04:25:34.599Z,100.00
2022-11-28T04:26:34.591Z,100.00
2022-11-28T04:27:34.622Z,100.00
2022-11-28T04:28:34.561Z,100.00
2022-11-28T04:29:37.541Z,100.00
2022-11-28T04:30:37.551Z,100.00
2022-11-28T04:31:34.582Z,100.00
2022-11-28T04:32:34.502Z,100.00
2022-11-28T04:33:34.531Z,100.00
2022-11-28T04:34:34.480Z,100.00
2022-11-28T04:35:34.476Z,100.00
2022-11-28T04:36:34.451Z,100.00
2022-11-28T04:37:34.431Z,100.00
2022-11-28T04:38:34.436Z,100.00
2022-11-28T04:39:34.453Z,100.00
2022-11-28T04:40:34.394Z,100.00
2022-11-28T04:41:34.384Z,100.00
2022-11-28T04:42:34.373Z,100.00
2022-11-28T04:43:34.355Z,100.00
2022-11-28T04:44:34.344Z,100.00
2022-11-28T04:45:34.473Z,100.00
2022-11-28T04:46:34.324Z,100.00
2022-11-28T04:47:34.315Z,100.00
2022-11-28T04:48:34.714Z,100.00
2022-11-28T04:49:37.279Z,100.00
2022-11-28T04:50:37.337Z,100.00
2022-11-28T04:51:34.244Z,100.00
2022-11-28T04:52:34.235Z,100.00
2022-11-28T04:53:34.278Z,100.00
2022-11-28T04:54:34.215Z,100.00
2022-11-28T04:55:34.196Z,100.00
2022-11-28T04:56:34.186Z,100.00
2022-11-28T04:57:34.167Z,100.00
2022-11-28T04:58:34.158Z,100.00
2022-11-28T04:59:34.187Z,100.00
2022-11-28T05:00:34.179Z,100.00
2022-11-28T05:01:34.119Z,100.00
2022-11-28T05:02:34.149Z,100.00
2022-11-28T05:03:35.920Z,100.00
2022-11-28T05:04:34.080Z,100.00
2022-11-28T05:05:34.122Z,100.00
2022-11-28T05:06:34.054Z,100.00
2022-11-28T05:07:34.085Z,100.00
2022-11-28T05:08:34.029Z,100.00
2022-11-28T05:09:37.008Z,100.00
2022-11-28T05:10:37.059Z,100.00
2022-11-28T05:11:33.995Z,100.00
2022-11-28T05:12:33.981Z,100.00
2022-11-28T05:13:33.959Z,100.00
2022-11-28T05:14:33.965Z,100.00
2022-11-28T05:15:33.928Z,100.00
2022-11-28T05:16:34.052Z,100.00
2022-11-28T05:17:37.681Z,100.00
2022-11-28T05:18:34.909Z,100.00
2022-11-28T05:19:33.904Z,100.00
2022-11-28T05:20:33.864Z,100.00
2022-11-28T05:21:33.851Z,100.00
2022-11-28T05:22:33.903Z,100.00
2022-11-28T05:23:33.822Z,100.00
2022-11-28T05:24:33.827Z,100.00
2022-11-28T05:25:33.801Z,100.00
2022-11-28T05:26:33.782Z,100.00
2022-11-28T05:27:33.807Z,100.00
2022-11-28T05:28:33.780Z,100.00
2022-11-28T05:29:36.743Z,100.00
2022-11-28T05:30:36.743Z,100.00
2022-11-28T05:31:33.781Z,100.00
2022-11-28T05:32:33.764Z,100.00
2022-11-28T05:33:33.691Z,100.00
2022-11-28T05:34:33.678Z,100.00
2022-11-28T05:35:33.660Z,100.00
2022-11-28T05:36:33.644Z,100.00
2022-11-28T05:37:33.650Z,100.00
2022-11-28T05:38:33.664Z,100.00
2022-11-28T05:39:33.629Z,100.00
2022-11-28T05:40:33.597Z,100.00
2022-11-28T05:41:33.578Z,100.00
2022-11-28T05:42:33.594Z,100.00
2022-11-28T05:43:33.553Z,100.00
2022-11-28T05:44:33.587Z,100.00
2022-11-28T05:45:33.603Z,100.00
2022-11-28T05:46:33.510Z,100.00
2022-11-28T05:47:33.499Z,100.00
2022-11-28T05:48:33.491Z,100.00
2022-11-28T05:49:36.530Z,100.00
2022-11-28T05:50:39.886Z,100.00
2022-11-28T05:51:33.444Z,100.00
2022-11-28T05:52:33.430Z,100.00
2022-11-28T05:53:33.420Z,100.00
2022-11-28T05:54:33.412Z,100.00
2022-11-28T05:55:33.431Z,100.00
2022-11-28T05:56:35.917Z,100.00
2022-11-28T05:57:33.372Z,100.00
2022-11-28T05:58:33.349Z,100.00
2022-11-28T05:59:33.333Z,100.00
2022-11-28T06:00:33.323Z,100.00
2022-11-28T06:01:33.410Z,100.00
2022-11-28T06:02:33.421Z,100.00
2022-11-28T06:03:33.289Z,100.00
2022-11-28T06:04:33.303Z,100.00
2022-11-28T06:05:42.700Z,100.00
2022-11-28T06:06:34.303Z,100.00
2022-11-28T06:07:33.298Z,100.00
2022-11-28T06:08:33.211Z,100.00
2022-11-28T06:09:36.205Z,100.00
2022-11-28T06:10:36.197Z,100.00
2022-11-28T06:11:33.183Z,100.00
2022-11-28T06:12:33.225Z,100.00
2022-11-28T06:13:33.145Z,100.00
2022-11-28T06:14:33.135Z,100.00
2022-11-28T06:15:37.477Z,100.00
2022-11-28T06:16:34.143Z,100.00
2022-11-28T06:17:33.098Z,100.00
2022-11-28T06:18:33.126Z,100.00
2022-11-28T06:19:33.067Z,100.00
2022-11-28T06:20:33.047Z,100.00
2022-11-28T06:21:33.036Z,100.00
2022-11-28T06:22:33.031Z,100.00
2022-11-28T06:23:33.019Z,100.00
2022-11-28T06:24:33.058Z,100.00
2022-11-28T06:25:32.985Z,100.00
2022-11-28T06:26:32.967Z,100.00
2022-11-28T06:27:32.959Z,100.00
2022-11-28T06:28:32.955Z,100.00
2022-11-28T06:29:35.978Z,100.00
2022-11-28T06:30:35.929Z,100.00
2022-11-28T06:31:32.955Z,100.00
2022-11-28T06:32:32.904Z,100.00
2022-11-28T06:33:32.878Z,100.00
2022-11-28T06:34:32.860Z,100.00
2022-11-28T06:35:32.887Z,100.00
2022-11-28T06:36:32.843Z,100.00
2022-11-28T06:37:32.841Z,100.00
2022-11-28T06:38:32.820Z,100.00
2022-11-28T06:39:32.800Z,100.00
2022-11-28T06:40:32.782Z,100.00
2022-11-28T06:41:32.831Z,100.00
2022-11-28T06:42:32.752Z,100.00
2022-11-28T06:43:32.751Z,100.00
2022-11-28T06:44:32.752Z,100.00
2022-11-28T06:45:32.770Z,100.00
2022-11-28T06:46:32.739Z,100.00
2022-11-28T06:47:32.745Z,100.00
2022-11-28T06:48:32.678Z,100.00
2022-11-28T06:49:35.665Z,100.00
2022-11-28T06:50:35.653Z,100.00
2022-11-28T06:51:32.630Z,100.00
2022-11-28T06:52:32.613Z,100.00
2022-11-28T06:53:32.672Z,100.00
2022-11-28T06:54:32.583Z,100.00
2022-11-28T06:55:32.576Z,100.00
2022-11-28T06:56:32.554Z,100.00
2022-11-28T06:57:32.556Z,100.00
2022-11-28T06:58:32.534Z,100.00
2022-11-28T06:59:32.574Z,100.00
2022-11-28T07:00:32.506Z,100.00
2022-11-28T07:01:32.574Z,100.00
2022-11-28T07:02:32.545Z,100.00
2022-11-28T07:03:32.465Z,100.00
2022-11-28T07:04:32.453Z,100.00
2022-11-28T07:05:32.486Z,100.00
2022-11-28T07:06:32.416Z,100.00
2022-11-28T07:07:32.442Z,100.00
2022-11-28T07:08:32.388Z,100.00
2022-11-28T07:09:35.389Z,100.00
2022-11-28T07:10:35.438Z,100.00
2022-11-28T07:11:32.349Z,100.00
2022-11-28T07:12:32.336Z,100.00
2022-11-28T07:13:32.338Z,100.00
2022-11-28T07:14:32.308Z,100.00
2022-11-28T07:15:32.308Z,100.00
2022-11-28T07:16:32.380Z,100.00
2022-11-28T07:17:32.273Z,100.00
2022-11-28T07:18:32.248Z,100.00
2022-11-28T07:19:32.238Z,100.00
2022-11-28T07:20:32.229Z,100.00
2022-11-28T07:21:32.210Z,100.00
2022-11-28T07:22:32.249Z,100.00
2022-11-28T07:23:32.191Z,100.00
2022-11-28T07:24:32.170Z,100.00
2022-11-28T07:25:32.171Z,100.00
2022-11-28T07:26:32.140Z,100.00
2022-11-28T07:27:32.130Z,100.00
2022-11-28T07:28:32.292Z,100.00
2022-11-28T07:29:35.104Z,100.00
2022-11-28T07:30:35.092Z,100.00
2022-11-28T07:31:32.385Z,100.00
2022-11-28T07:32:32.061Z,100.00
2022-11-28T07:33:32.053Z,100.00
2022-11-28T07:34:32.065Z,100.00
2022-11-28T07:35:32.022Z,100.00
2022-11-28T07:36:32.003Z,100.00
2022-11-28T07:37:31.992Z,100.00
2022-11-28T07:38:31.986Z,100.00
2022-11-28T07:39:32.154Z,100.00
2022-11-28T07:40:31.943Z,100.00
2022-11-28T07:41:31.941Z,100.00
2022-11-28T07:42:31.923Z,100.00
2022-11-28T07:43:31.936Z,100.00
2022-11-28T07:44:31.895Z,100.00
2022-11-28T07:45:47.501Z,100.00
2022-11-28T07:46:32.955Z,100.00
2022-11-28T07:47:31.859Z,100.00
2022-11-28T07:48:31.844Z,100.00
2022-11-28T07:49:34.824Z,100.00
2022-11-28T07:50:34.911Z,100.00
2022-11-28T07:51:31.805Z,100.00
2022-11-28T07:52:31.784Z,100.00
2022-11-28T07:53:31.786Z,100.00
2022-11-28T07:54:31.758Z,100.00
2022-11-28T07:55:31.749Z,100.00
2022-11-28T07:56:57.177Z,100.00
2022-11-28T07:57:32.718Z,100.00
2022-11-28T07:58:31.710Z,100.00
2022-11-28T07:59:31.694Z,100.00
2022-11-28T08:00:31.678Z,100.00
2022-11-28T08:01:31.720Z,100.00
2022-11-28T08:02:31.711Z,100.00
2022-11-28T08:03:31.640Z,100.00
2022-11-28T08:04:31.695Z,100.00
2022-11-28T08:05:31.609Z,100.00
2022-11-28T08:06:31.610Z,100.00
2022-11-28T08:07:31.703Z,100.00
2022-11-28T08:08:31.574Z,100.00
2022-11-28T08:09:34.552Z,100.00
2022-11-28T08:10:34.564Z,100.00
2022-11-28T08:11:31.546Z,100.00
2022-11-28T08:12:31.510Z,100.00
2022-11-28T08:13:31.530Z,100.00
2022-11-28T08:14:31.492Z,100.00
2022-11-28T08:15:31.484Z,100.00
2022-11-28T08:16:31.497Z,100.00
2022-11-28T08:17:31.449Z,100.00
2022-11-28T08:18:31.480Z,100.00
2022-11-28T08:19:35.112Z,100.00
2022-11-28T08:20:31.404Z,100.00
2022-11-28T08:21:31.409Z,100.00
2022-11-28T08:22:31.374Z,100.00
2022-11-28T08:23:31.365Z,100.00
2022-11-28T08:24:31.342Z,100.00
2022-11-28T08:25:31.364Z,100.00
2022-11-28T08:26:31.384Z,100.00
2022-11-28T08:27:31.315Z,100.00
2022-11-28T08:28:31.294Z,100.00
2022-11-28T08:29:34.284Z,100.00
2022-11-28T08:30:34.351Z,100.00
2022-11-28T08:31:31.266Z,100.00
2022-11-28T08:32:31.234Z,100.00
2022-11-28T08:33:31.224Z,100.00
2022-11-28T08:34:31.225Z,100.00
2022-11-28T08:35:31.239Z,100.00
2022-11-28T08:36:31.183Z,100.00
2022-11-28T08:37:31.165Z,100.00
2022-11-28T08:38:31.156Z,100.00
2022-11-28T08:39:31.161Z,100.00
2022-11-28T08:40:31.147Z,100.00
2022-11-28T08:41:31.150Z,100.00
2022-11-28T08:42:31.114Z,100.00
2022-11-28T08:43:31.091Z,100.00
2022-11-28T08:44:31.098Z,100.00
2022-11-28T08:45:31.140Z,100.00
2022-11-28T08:46:31.053Z,100.00
2022-11-28T08:47:31.029Z,100.00
2022-11-28T08:48:31.017Z,100.00
2022-11-28T08:49:34.030Z,100.00
2022-11-28T08:50:34.006Z,100.00
2022-11-28T08:51:31.012Z,100.00
2022-11-28T08:52:31.031Z,100.00
2022-11-28T08:53:30.948Z,100.00
2022-11-28T08:54:30.932Z,100.00
2022-11-28T08:55:32.465Z,100.00
2022-11-28T08:56:30.917Z,100.00
2022-11-28T08:57:30.890Z,100.00
2022-11-28T08:58:30.900Z,100.00
2022-11-28T08:59:30.875Z,100.00
2022-11-28T09:00:30.851Z,100.00
2022-11-28T09:01:30.948Z,100.00
2022-11-28T09:02:39.567Z,100.00
2022-11-28T09:03:30.854Z,100.00
2022-11-28T09:04:30.855Z,100.00
2022-11-28T09:05:30.801Z,100.00
2022-11-28T09:06:30.840Z,100.00
2022-11-28T09:07:30.785Z,100.00
2022-11-28T09:08:30.774Z,100.00
2022-11-28T09:09:33.742Z,100.00
2022-11-28T09:10:33.746Z,100.00
2022-11-28T09:11:30.726Z,100.00
2022-11-28T09:12:30.731Z,100.00
2022-11-28T09:13:30.682Z,100.00
2022-11-28T09:14:30.672Z,100.00
2022-11-28T09:15:30.666Z,100.00
2022-11-28T09:16:30.697Z,100.00
2022-11-28T09:17:30.631Z,100.00
2022-11-28T09:18:30.632Z,100.00
2022-11-28T09:19:30.603Z,100.00
2022-11-28T09:20:30.597Z,100.00
2022-11-28T09:21:30.564Z,100.00
2022-11-28T09:22:30.560Z,100.00
2022-11-28T09:23:30.586Z,100.00
2022-11-28T09:24:30.564Z,100.00
2022-11-28T09:25:30.513Z,100.00
2022-11-28T09:26:30.501Z,100.00
2022-11-28T09:27:30.493Z,100.00
2022-11-28T09:28:30.471Z,100.00
2022-11-28T09:29:33.515Z,100.00
2022-11-28T09:30:33.559Z,100.00
2022-11-28T09:31:30.516Z,100.00
2022-11-28T09:32:30.415Z,100.00
2022-11-28T09:33:30.408Z,100.00
2022-11-28T09:34:30.400Z,100.00
2022-11-28T09:35:30.427Z,100.00
2022-11-28T09:36:30.371Z,100.00
2022-11-28T09:37:30.356Z,100.00
2022-11-28T09:38:30.340Z,100.00
2022-11-28T09:39:44.028Z,100.00
2022-11-28T09:40:31.327Z,100.00
2022-11-28T09:41:30.369Z,100.00
2022-11-28T09:42:30.269Z,100.00
2022-11-28T09:43:30.269Z,100.00
2022-11-28T09:44:30.250Z,100.00
2022-11-28T09:45:30.238Z,100.00
2022-11-28T09:46:30.249Z,100.00
2022-11-28T09:47:30.250Z,100.00
2022-11-28T09:48:30.200Z,100.00
2022-11-28T09:49:39.834Z,100.00
2022-11-28T09:50:34.183Z,100.00
2022-11-28T09:51:30.158Z,100.00
2022-11-28T09:52:30.200Z,100.00
2022-11-28T09:53:30.166Z,100.00
2022-11-28T09:54:30.121Z,100.00
2022-11-28T09:55:30.101Z,100.00
2022-11-28T09:56:30.098Z,100.00
2022-11-28T09:57:30.101Z,100.00
2022-11-28T09:58:30.075Z,100.00
2022-11-28T09:59:30.052Z,100.00
2022-11-28T10:00:30.073Z,100.00
2022-11-28T10:01:30.029Z,100.00
2022-11-28T10:02:31.034Z,100.00
2022-11-28T10:03:30.065Z,100.00
2022-11-28T10:04:30.035Z,100.00
2022-11-28T10:05:29.963Z,100.00
2022-11-28T10:06:29.994Z,100.00
2022-11-28T10:07:29.996Z,100.00
2022-11-28T10:08:29.924Z,100.00
2022-11-28T10:09:32.906Z,100.00
2022-11-28T10:10:32.912Z,100.00
2022-11-28T10:11:29.903Z,100.00
2022-11-28T10:12:29.943Z,100.00
2022-11-28T10:13:46.972Z,100.00
2022-11-28T10:14:30.855Z,100.00
2022-11-28T10:15:29.840Z,100.00
2022-11-28T10:16:29.896Z,100.00
2022-11-28T10:17:29.818Z,100.00
2022-11-28T10:18:29.835Z,100.00
2022-11-28T10:19:53.439Z,100.00
2022-11-28T10:20:30.765Z,100.00
2022-11-28T10:21:29.746Z,100.00
2022-11-28T10:22:29.736Z,100.00
2022-11-28T10:23:29.730Z,100.00
2022-11-28T10:24:29.743Z,100.00
2022-11-28T10:25:29.688Z,100.00
2022-11-28T10:26:29.677Z,100.00
2022-11-28T10:27:29.659Z,100.00
2022-11-28T10:28:29.650Z,100.00
2022-11-28T10:29:32.688Z,100.00
2022-11-28T10:30:32.663Z,100.00
2022-11-28T10:31:29.679Z,100.00
2022-11-28T10:32:29.599Z,100.00
2022-11-28T10:33:29.570Z,100.00
2022-11-28T10:34:29.562Z,100.00
2022-11-28T10:35:29.582Z,100.00
2022-11-28T10:36:29.545Z,100.00
2022-11-28T10:37:29.520Z,100.00
2022-11-28T10:38:29.509Z,100.00
2022-11-28T10:39:29.490Z,100.00
2022-11-28T10:40:29.479Z,100.00
2022-11-28T10:41:29.490Z,100.00
2022-11-28T10:42:29.442Z,100.00
2022-11-28T10:43:29.431Z,100.00
2022-11-28T10:44:29.423Z,100.00
2022-11-28T10:45:29.400Z,100.00
2022-11-28T10:46:29.429Z,100.00
2022-11-28T10:47:29.415Z,100.00
2022-11-28T10:48:39.581Z,100.00
2022-11-28T10:49:33.356Z,100.00
2022-11-28T10:50:32.627Z,100.00
2022-11-28T10:51:29.323Z,100.00
2022-11-28T10:52:29.342Z,100.00
2022-11-28T10:53:29.323Z,100.00
2022-11-28T10:54:29.284Z,100.00
2022-11-28T10:55:29.265Z,100.00
2022-11-28T10:56:29.263Z,100.00
2022-11-28T10:57:29.233Z,100.00
2022-11-28T10:58:29.282Z,100.00
2022-11-28T10:59:29.215Z,100.00
2022-11-28T11:00:29.222Z,100.00
2022-11-28T11:01:29.282Z,100.00
2022-11-28T11:02:29.169Z,100.00
2022-11-28T11:03:29.146Z,100.00
2022-11-28T11:04:29.201Z,100.00
2022-11-28T11:05:29.180Z,100.00
2022-11-28T11:06:40.859Z,100.00
2022-11-28T11:07:30.432Z,100.00
2022-11-28T11:08:29.203Z,100.00
2022-11-28T11:09:32.097Z,100.00
2022-11-28T11:10:32.105Z,100.00
2022-11-28T11:11:29.047Z,100.00
2022-11-28T11:12:29.057Z,100.00
2022-11-28T11:13:29.015Z,100.00
2022-11-28T11:14:29.008Z,100.00
2022-11-28T11:15:29.009Z,100.00
2022-11-28T11:16:29.131Z,100.00
2022-11-28T11:17:34.243Z,100.00
2022-11-28T11:18:29.951Z,100.00
2022-11-28T11:19:28.947Z,100.00
2022-11-28T11:20:28.938Z,100.00
2022-11-28T11:21:28.908Z,100.00
2022-11-28T11:22:28.930Z,100.00
2022-11-28T11:23:31.678Z,100.00
2022-11-28T11:24:29.876Z,100.00
2022-11-28T11:25:28.853Z,100.00
2022-11-28T11:26:28.842Z,100.00
2022-11-28T11:27:28.832Z,100.00
2022-11-28T11:28:28.878Z,100.00
2022-11-28T11:29:31.798Z,100.00
2022-11-28T11:30:31.892Z,100.00
2022-11-28T11:31:28.815Z,100.00
2022-11-28T11:32:28.762Z,100.00
2022-11-28T11:33:28.759Z,100.00
2022-11-28T11:34:28.773Z,100.00
2022-11-28T11:35:28.723Z,100.00
2022-11-28T11:36:28.714Z,100.00
2022-11-28T11:37:28.692Z,100.00
2022-11-28T11:38:31.244Z,100.00
2022-11-28T11:39:29.711Z,100.00
2022-11-28T11:40:28.655Z,100.00
2022-11-28T11:41:28.653Z,100.00
2022-11-28T11:42:28.633Z,100.00
2022-11-28T11:43:28.613Z,100.00
2022-11-28T11:44:28.604Z,100.00
2022-11-28T11:45:28.623Z,100.00
2022-11-28T11:46:28.709Z,100.00
2022-11-28T11:47:28.554Z,100.00
2022-11-28T11:48:28.554Z,100.00
2022-11-28T11:49:31.536Z,100.00
2022-11-28T11:50:31.570Z,100.00
2022-11-28T11:51:28.578Z,100.00
2022-11-28T11:52:28.501Z,100.00
2022-11-28T11:53:28.486Z,100.00
2022-11-28T11:54:28.476Z,100.00
2022-11-28T11:55:28.457Z,100.00
2022-11-28T11:56:28.445Z,100.00
2022-11-28T11:57:33.480Z,100.00
2022-11-28T11:58:29.416Z,100.00
2022-11-28T12:03:02.136Z,46.23
2022-11-28T12:04:17.773Z,45.92
2022-11-28T12:05:03.088Z,46.33
2022-11-28T12:06:17.338Z,45.81
2022-11-28T12:07:03.017Z,45.92
2022-11-28T12:08:02.015Z,45.50
2022-11-28T12:09:01.940Z,45.40
2022-11-28T12:10:04.740Z,45.20
2022-11-28T12:11:01.909Z,45.30
2022-11-28T12:12:01.897Z,45.20
2022-11-28T12:13:01.950Z,44.99
2022-11-28T12:14:01.867Z,44.78
2022-11-28T12:15:01.859Z,44.66
2022-11-28T12:16:01.882Z,44.66
2022-11-28T12:17:14.297Z,44.56
2022-11-28T12:18:02.860Z,44.35
2022-11-28T12:19:01.800Z,44.35
2022-11-28T12:20:01.805Z,44.56
2022-11-28T12:21:01.770Z,44.66
2022-11-28T12:22:04.760Z,44.56
2022-11-28T12:23:04.819Z,44.66
2022-11-28T12:24:01.730Z,44.76
2022-11-28T12:25:01.723Z,44.86
2022-11-28T12:26:01.699Z,44.96
2022-11-28T12:27:01.687Z,45.48
2022-11-28T12:28:01.682Z,45.17
2022-11-28T12:29:01.844Z,45.69
2022-11-28T12:30:01.666Z,45.48
2022-11-28T12:31:01.688Z,46.00
2022-11-28T12:32:01.621Z,46.21
2022-11-28T12:33:01.610Z,46.00